Time;durP1;ratioP1;P1;durP2;ratioP2;P2;SDS_P1;SDS_P2;PMS_P1;PMS_P2;Temp;Humidity;BMP_temperature;BMP_pressure;BME280_temperature;BME280_humidity;BME280_pressure;Samples;Min_cycle;Max_cycle;Signal;HPM_P1;HPM_P2
2021/06/21 00:00:25;;;;;;;9.13;4.20;;;15.20;90.40;;;;;;5052584;28;20454;-73
2021/06/21 00:02:51;;;;;;;9.40;4.03;;;15.20;90.40;;;;;;5051814;28;20072;-72
2021/06/21 00:05:21;;;;;;;8.43;4.13;;;15.20;90.40;;;;;;5051895;28;20446;-74
2021/06/21 00:07:47;;;;;;;7.63;3.57;;;15.20;90.40;;;;;;5052415;28;20111;-73
2021/06/21 00:10:15;;;;;;;8.20;4.47;;;15.20;90.50;;;;;;5051200;28;20045;-73
2021/06/21 00:12:44;;;;;;;9.37;4.40;;;15.30;90.50;;;;;;5052246;28;20049;-72
2021/06/21 00:15:12;;;;;;;5.50;3.83;;;15.30;90.50;;;;;;5051753;28;20563;-72
2021/06/21 00:17:38;;;;;;;10.33;4.60;;;15.30;90.60;;;;;;5051663;28;20102;-73
2021/06/21 00:20:05;;;;;;;6.53;4.10;;;15.30;90.70;;;;;;5051492;28;20444;-72
2021/06/21 00:22:31;;;;;;;11.00;4.57;;;15.30;90.70;;;;;;5052176;28;20060;-72
2021/06/21 00:24:56;;;;;;;8.20;5.17;;;15.30;90.70;;;;;;5051088;28;20057;-73
2021/06/21 00:27:24;;;;;;;9.23;4.07;;;15.30;90.60;;;;;;5051925;28;20045;-73
2021/06/21 00:29:51;;;;;;;12.00;4.53;;;15.30;90.60;;;;;;5052058;28;20052;-73
2021/06/21 00:32:17;;;;;;;10.83;4.07;;;15.20;90.50;;;;;;5050869;28;20490;-73
2021/06/21 00:34:42;;;;;;;11.50;4.30;;;15.20;90.40;;;;;;5051948;28;20048;-73
2021/06/21 00:37:08;;;;;;;8.53;4.60;;;15.20;90.40;;;;;;5051189;28;20068;-72
2021/06/21 00:39:34;;;;;;;8.20;4.30;;;15.20;90.40;;;;;;5051159;28;20500;-73
2021/06/21 00:41:59;;;;;;;9.00;4.00;;;15.20;90.40;;;;;;5051731;28;20053;-73
2021/06/21 00:44:25;;;;;;;9.00;4.27;;;15.20;90.40;;;;;;5051045;28;20044;-73
2021/06/21 00:46:51;;;;;;;9.00;4.03;;;15.10;90.20;;;;;;5051868;28;20449;-73
2021/06/21 00:49:17;;;;;;;9.07;3.70;;;15.10;90.20;;;;;;5051662;28;20049;-72
2021/06/21 00:51:43;;;;;;;9.30;3.83;;;15.10;90.20;;;;;;5050859;28;20053;-73
2021/06/21 00:54:09;;;;;;;11.53;4.10;;;15.00;90.10;;;;;;5050875;28;20053;-73
2021/06/21 00:56:35;;;;;;;8.00;3.97;;;15.00;90.10;;;;;;5051424;28;20052;-73
2021/06/21 00:59:02;;;;;;;6.63;3.40;;;15.00;90.10;;;;;;5050383;28;20053;-73
2021/06/21 01:01:28;;;;;;;9.33;3.80;;;15.00;90.10;;;;;;5051510;28;20040;-73
2021/06/21 01:03:54;;;;;;;8.30;3.27;;;15.00;90.00;;;;;;5051030;28;20418;-72
2021/06/21 01:06:20;;;;;;;7.00;3.23;;;15.00;90.00;;;;;;5050383;28;20068;-73
2021/06/21 01:08:46;;;;;;;9.13;3.53;;;15.00;89.90;;;;;;5033479;28;20045;-73
2021/06/21 01:11:13;;;;;;;6.47;3.80;;;15.00;90.00;;;;;;5051023;28;20045;-73
2021/06/21 01:14:04;;;;;;;7.80;3.40;;;15.00;89.90;;;;;;5050654;28;20227;-73
2021/06/21 01:16:56;;;;;;;4.28;2.88;;;15.00;89.80;;;;;;5051214;28;20498;-72
2021/06/21 01:19:28;;;;;;;7.68;3.10;;;15.00;89.70;;;;;;5051096;28;20076;-72
2021/06/21 01:22:43;;;;;;;9.13;3.60;;;15.00;89.60;;;;;;5050957;28;20071;-73
2021/06/21 01:25:27;;;;;;;8.13;3.90;;;15.00;89.60;;;;;;5050583;28;20099;-72
2021/06/21 01:27:56;;;;;;;8.13;3.43;;;15.00;89.50;;;;;;5050590;28;20139;-73
2021/06/21 01:30:40;;;;;;;7.27;3.70;;;15.00;89.60;;;;;;5050945;28;20136;-72
2021/06/21 01:33:07;;;;;;;7.67;3.03;;;15.00;89.40;;;;;;5054944;28;20045;-72
2021/06/21 01:35:36;;;;;;;8.10;3.10;;;15.00;89.50;;;;;;5054384;28;20049;-73
2021/06/21 01:38:07;;;;;;;6.57;3.00;;;15.00;89.60;;;;;;5054379;28;20053;-73
2021/06/21 01:40:40;;;;;;;6.80;3.25;;;15.00;89.50;;;;;;5054994;28;20143;-73
2021/06/21 01:43:09;;;;;;;8.93;2.60;;;15.00;89.50;;;;;;5054866;28;20553;-72
2021/06/21 01:45:36;;;;;;;9.13;3.10;;;15.00;89.50;;;;;;5054894;28;20049;-73
2021/06/21 01:48:03;;;;;;;6.13;2.53;;;15.00;89.30;;;;;;5053960;28;20073;-73
2021/06/21 01:50:30;;;;;;;5.90;2.80;;;15.00;89.30;;;;;;5054732;28;20049;-73
2021/06/21 01:53:14;;;;;;;7.43;2.83;;;15.00;89.40;;;;;;5054842;28;20044;-73
2021/06/21 01:55:56;;;;;;;5.40;2.87;;;15.00;89.00;;;;;;5054349;28;20057;-72
2021/06/21 01:58:22;;;;;;;;;;;15.00;89.00;;;;;;5055173;28;20052;-73
2021/06/21 02:00:48;;;;;;;7.83;2.70;;;14.90;88.50;;;;;;5054980;28;20058;-73
2021/06/21 02:03:16;;;;;;;3.93;2.07;;;14.90;88.90;;;;;;5053641;28;20442;-73
2021/06/21 02:05:42;;;;;;;4.57;2.70;;;14.90;88.70;;;;;;5054667;28;20052;-73
2021/06/21 02:08:12;;;;;;;6.40;2.80;;;14.90;88.40;;;;;;5054325;28;20061;-73
2021/06/21 02:10:39;;;;;;;3.43;2.40;;;14.90;88.30;;;;;;5054075;28;20136;-73
2021/06/21 02:13:06;;;;;;;5.47;2.93;;;14.90;88.40;;;;;;5054410;28;20053;-72
2021/06/21 02:15:32;;;;;;;7.77;2.70;;;14.90;88.50;;;;;;5054324;28;20056;-73
2021/06/21 02:18:00;;;;;;;5.70;2.80;;;14.80;88.70;;;;;;5053609;28;20048;-72
2021/06/21 02:20:26;;;;;;;6.73;2.47;;;14.80;89.70;;;;;;5054586;28;20045;-73
2021/06/21 02:22:52;;;;;;;5.03;2.53;;;14.80;89.00;;;;;;5053535;28;20053;-73
2021/06/21 02:25:25;;;;;;;3.93;2.83;;;14.80;89.20;;;;;;5054301;28;20057;-72
2021/06/21 02:27:51;;;;;;;5.10;3.07;;;14.70;89.40;;;;;;5053871;28;20555;-73
2021/06/21 02:30:17;;;;;;;5.20;2.40;;;14.70;89.50;;;;;;5053579;28;20197;-73
2021/06/21 02:32:47;;;;;;;5.53;3.17;;;14.70;89.60;;;;;;5054126;28;20427;-72
2021/06/21 02:35:15;;;;;;;6.87;3.40;;;14.70;89.60;;;;;;5053899;28;20045;-73
2021/06/21 02:37:42;;;;;;;7.70;3.50;;;14.70;89.70;;;;;;5053127;28;20056;-72
2021/06/21 02:40:11;;;;;;;6.17;3.10;;;14.70;89.80;;;;;;5053575;28;20445;-72
2021/06/21 02:42:37;;;;;;;6.93;3.50;;;14.60;89.90;;;;;;5053617;28;20067;-72
2021/06/21 02:45:04;;;;;;;7.47;3.13;;;14.60;90.00;;;;;;5053073;28;20060;-72
2021/06/21 02:47:30;;;;;;;5.87;3.80;;;14.60;90.20;;;;;;5054102;28;20049;-72
2021/06/21 02:49:56;;;;;;;7.17;3.87;;;14.60;90.40;;;;;;5054103;28;20110;-72
2021/06/21 02:52:36;;;;;;;11.00;4.17;;;14.60;90.40;;;;;;5052864;28;20130;-72
2021/06/21 02:55:07;;;;;;;10.47;5.20;;;14.60;90.50;;;;;;5053695;28;20127;-72
2021/06/21 02:57:58;;;;;;;8.53;5.83;;;14.50;90.60;;;;;;5053809;28;20060;-71
2021/06/21 03:00:25;;;;;;;11.53;7.07;;;14.50;90.80;;;;;;5053765;28;20128;-71
2021/06/21 03:02:55;;;;;;;13.20;7.37;;;14.50;91.00;;;;;;5053939;28;20049;-71
2021/06/21 03:05:22;;;;;;;12.67;7.90;;;14.40;91.20;;;;;;5052428;28;20061;-71
2021/06/21 03:07:50;;;;;;;11.07;7.37;;;14.40;91.30;;;;;;5053457;28;20073;-71
2021/06/21 03:10:17;;;;;;;15.13;7.17;;;14.40;91.40;;;;;;5053485;28;20128;-71
2021/06/21 03:12:45;;;;;;;12.33;7.30;;;14.40;91.50;;;;;;5052607;28;20068;-71
2021/06/21 03:15:18;;;;;;;15.03;7.50;;;14.30;91.70;;;;;;5053402;28;20072;-71
2021/06/21 03:17:43;;;;;;;12.60;7.57;;;14.30;91.80;;;;;;5053195;28;20552;-72
2021/06/21 03:20:11;;;;;;;10.63;6.60;;;14.40;92.00;;;;;;5052580;28;20045;-71
2021/06/21 03:22:39;;;;;;;11.30;5.97;;;14.30;92.20;;;;;;5053617;28;20198;-71
2021/06/21 03:25:05;;;;;;;12.83;6.30;;;14.30;92.30;;;;;;5053254;28;20118;-72
2021/06/21 03:27:35;;;;;;;13.73;6.63;;;14.30;92.40;;;;;;5052481;28;20401;-71
2021/06/21 03:30:05;;;;;;;10.10;5.37;;;14.30;92.50;;;;;;5053053;28;20141;-71
2021/06/21 03:32:34;;;;;;;8.47;5.67;;;14.30;92.60;;;;;;5053147;28;20049;-72
2021/06/21 03:35:02;;;;;;;10.23;4.87;;;14.30;92.70;;;;;;5052591;28;20470;-72
2021/06/21 03:37:29;;;;;;;9.50;5.10;;;14.30;92.80;;;;;;5053046;28;20057;-72
2021/06/21 03:39:56;;;;;;;13.03;4.70;;;14.20;92.80;;;;;;5053376;28;20124;-72
2021/06/21 03:42:21;;;;;;;10.40;4.63;;;14.20;92.90;;;;;;5052314;28;20079;-72
2021/06/21 03:44:48;;;;;;;10.97;4.50;;;14.20;93.00;;;;;;5052828;28;20414;-71
2021/06/21 03:47:15;;;;;;;12.37;5.67;;;14.20;93.10;;;;;;5052293;28;20049;-72
2021/06/21 03:49:42;;;;;;;9.87;5.20;;;14.20;93.20;;;;;;5053112;28;20110;-71
2021/06/21 03:52:08;;;;;;;10.53;4.50;;;14.20;93.20;;;;;;5052696;28;20045;-71
2021/06/21 03:54:34;;;;;;;8.80;4.60;;;14.20;93.20;;;;;;5051279;28;20060;-72
2021/06/21 03:57:00;;;;;;;13.43;4.90;;;14.20;93.30;;;;;;5052488;28;20514;-71
2021/06/21 03:59:27;;;;;;;13.47;4.93;;;14.20;93.30;;;;;;5053019;28;20053;-71
2021/06/21 04:01:55;;;;;;;9.63;4.57;;;14.20;93.30;;;;;;5051879;28;20041;-71
2021/06/21 04:04:21;;;;;;;11.37;4.73;;;14.20;93.40;;;;;;5052420;28;20084;-71
2021/06/21 04:06:46;;;;;;;10.80;5.17;;;14.10;93.40;;;;;;5052739;28;20452;-71
2021/06/21 04:09:12;;;;;;;12.20;4.57;;;14.20;93.40;;;;;;5051500;28;20508;-71
2021/06/21 04:11:38;;;;;;;10.80;5.00;;;14.20;93.50;;;;;;5052675;28;20045;-71
2021/06/21 04:14:09;;;;;;;10.93;4.67;;;14.10;93.50;;;;;;5052070;28;20516;-71
2021/06/21 04:16:34;;;;;;;10.87;5.07;;;14.10;93.50;;;;;;5051746;28;20295;-72
2021/06/21 04:19:00;;;;;;;9.80;4.67;;;14.10;93.60;;;;;;5052125;28;20438;-71
2021/06/21 04:21:26;;;;;;;9.33;4.87;;;14.10;93.70;;;;;;5052311;28;20475;-72
2021/06/21 04:23:52;;;;;;;11.53;4.97;;;14.10;93.70;;;;;;5051238;28;20049;-72
2021/06/21 04:26:18;;;;;;;7.90;4.63;;;14.10;93.80;;;;;;5051594;28;20052;-72
2021/06/21 04:28:46;;;;;;;10.73;5.17;;;14.10;93.80;;;;;;5051845;28;20056;-72
2021/06/21 04:31:12;;;;;;;8.90;4.90;;;14.00;93.80;;;;;;5051098;28;20049;-72
2021/06/21 04:33:38;;;;;;;10.50;5.80;;;14.00;93.90;;;;;;5051790;28;20401;-72
2021/06/21 04:36:04;;;;;;;13.30;5.97;;;14.00;94.00;;;;;;5051485;28;20501;-72
2021/06/21 04:38:30;;;;;;;10.37;5.80;;;14.10;94.10;;;;;;5051177;28;20057;-73
2021/06/21 04:40:56;;;;;;;12.33;6.50;;;14.00;94.10;;;;;;5051652;28;20049;-73
2021/06/21 04:43:21;;;;;;;11.37;6.27;;;14.00;94.20;;;;;;5051182;28;20045;-73
2021/06/21 04:45:47;;;;;;;10.37;6.77;;;14.10;94.20;;;;;;5050654;28;20080;-72
2021/06/21 04:48:13;;;;;;;9.70;6.20;;;14.10;94.20;;;;;;5051507;28;20055;-73
2021/06/21 04:50:41;;;;;;;12.17;6.97;;;14.10;94.30;;;;;;5050813;28;20041;-72
2021/06/21 04:53:10;;;;;;;8.73;6.43;;;14.10;94.40;;;;;;5050992;28;20447;-72
2021/06/21 04:55:36;;;;;;;11.97;7.17;;;14.10;94.40;;;;;;5051437;28;20485;-72
2021/06/21 04:58:03;;;;;;;13.53;6.90;;;14.10;94.40;;;;;;5049852;28;20049;-72
2021/06/21 05:00:32;;;;;;;10.20;6.83;;;14.10;94.50;;;;;;5050989;28;20057;-72
2021/06/21 05:02:57;;;;;;;14.23;6.90;;;14.10;94.60;;;;;;5050836;28;20086;-72
2021/06/21 05:05:23;;;;;;;12.63;7.37;;;14.10;94.60;;;;;;5049821;28;20057;-72
2021/06/21 05:07:51;;;;;;;16.97;8.80;;;14.00;94.60;;;;;;5050709;28;20453;-72
2021/06/21 05:10:19;;;;;;;16.33;7.40;;;14.00;94.60;;;;;;5050400;28;20052;-72
2021/06/21 05:12:45;;;;;;;18.10;8.20;;;14.10;94.80;;;;;;5050012;28;20064;-72
2021/06/21 05:15:11;;;;;;;10.27;7.33;;;14.10;94.80;;;;;;5050535;28;20462;-72
2021/06/21 05:17:38;;;;;;;13.17;8.10;;;14.10;94.80;;;;;;5050392;28;20519;-72
2021/06/21 05:20:05;;;;;;;15.23;7.50;;;14.10;94.80;;;;;;5049708;28;20055;-72
2021/06/21 05:22:31;;;;;;;13.33;7.67;;;14.10;94.80;;;;;;5050760;28;20114;-72
2021/06/21 05:24:59;;;;;;;14.50;7.77;;;14.10;94.80;;;;;;5050086;28;20057;-72
2021/06/21 05:27:24;;;;;;;10.07;7.50;;;14.10;94.80;;;;;;5049577;28;20498;-72
2021/06/21 05:29:50;;;;;;;11.73;7.77;;;14.10;94.80;;;;;;5050399;28;20080;-72
2021/06/21 05:32:16;;;;;;;19.70;8.43;;;14.10;95.20;;;;;;5050275;28;20049;-72
2021/06/21 05:34:42;;;;;;;16.03;7.50;;;14.10;94.80;;;;;;5047275;28;20049;-72
2021/06/21 05:37:08;;;;;;;17.13;7.83;;;14.10;94.90;;;;;;5050028;28;20125;-71
2021/06/21 05:39:34;;;;;;;10.80;6.93;;;14.10;94.90;;;;;;5050177;28;20045;-72
2021/06/21 05:42:00;;;;;;;18.50;7.07;;;14.10;94.80;;;;;;5049047;28;20051;-72
2021/06/21 05:44:25;;;;;;;15.80;7.30;;;14.10;94.80;;;;;;5050239;28;20045;-71
2021/06/21 05:46:51;;;;;;;15.80;7.37;;;14.10;94.90;;;;;;5049557;28;20052;-72
2021/06/21 05:49:16;;;;;;;11.57;6.80;;;14.10;94.90;;;;;;5049736;28;20057;-71
2021/06/21 05:51:42;;;;;;;14.60;6.73;;;14.10;94.90;;;;;;5050126;28;20126;-71
2021/06/21 05:54:08;;;;;;;14.87;7.10;;;14.10;94.90;;;;;;5049184;28;20072;-71
2021/06/21 05:56:33;;;;;;;11.70;6.20;;;14.10;95.00;;;;;;5050174;28;20067;-71
2021/06/21 05:58:59;;;;;;;9.57;5.17;;;14.10;95.00;;;;;;5050067;28;20041;-71
2021/06/21 06:01:26;;;;;;;12.03;6.37;;;14.10;95.30;;;;;;5049030;28;20060;-71
2021/06/21 06:03:52;;;;;;;14.83;6.50;;;14.10;94.90;;;;;;5050254;28;20413;-71
2021/06/21 06:06:18;;;;;;;12.80;6.30;;;14.10;94.90;;;;;;5049563;28;20060;-72
2021/06/21 06:08:43;;;;;;;11.97;5.63;;;14.10;94.90;;;;;;5048866;28;20143;-72
2021/06/21 06:11:09;;;;;;;15.23;7.10;;;14.10;94.90;;;;;;5049561;28;20049;-71
2021/06/21 06:13:36;;;;;;;14.97;6.60;;;14.10;95.00;;;;;;5050056;28;20123;-71
2021/06/21 06:16:03;;;;;;;11.90;5.23;;;14.10;94.90;;;;;;5046373;28;20041;-71
2021/06/21 06:18:28;;;;;;;9.73;6.00;;;14.10;94.90;;;;;;5052732;28;20040;-71
2021/06/21 06:20:54;;;;;;;14.60;5.90;;;14.10;94.90;;;;;;5053494;28;20390;-72
2021/06/21 06:23:19;;;;;;;16.03;6.20;;;14.10;95.00;;;;;;5052082;28;20115;-72
2021/06/21 06:25:45;;;;;;;11.27;5.90;;;14.10;95.00;;;;;;5053610;28;20484;-71
2021/06/21 06:28:11;;;;;;;13.17;5.73;;;14.10;95.10;;;;;;5053051;28;20524;-72
2021/06/21 06:30:37;;;;;;;14.43;5.93;;;14.10;95.00;;;;;;5053025;28;20131;-72
2021/06/21 06:33:03;;;;;;;14.93;6.70;;;14.10;95.10;;;;;;5050543;28;20037;-72
2021/06/21 06:35:28;;;;;;;9.83;5.33;;;14.10;95.10;;;;;;5053255;28;20045;-72
2021/06/21 06:37:54;;;;;;;11.97;5.63;;;14.10;95.00;;;;;;5052579;28;20163;-72
2021/06/21 06:40:20;;;;;;;15.63;5.60;;;14.10;95.10;;;;;;5052662;28;20052;-72
2021/06/21 06:42:46;;;;;;;11.23;6.20;;;14.10;95.00;;;;;;5053560;28;20091;-72
2021/06/21 06:45:13;;;;;;;12.23;5.60;;;14.10;95.00;;;;;;5052480;28;20140;-72
2021/06/21 06:47:39;;;;;;;11.77;5.20;;;14.10;95.10;;;;;;5052996;28;20616;-72
2021/06/21 06:50:06;;;;;;;11.00;4.67;;;14.10;95.10;;;;;;5052015;28;20124;-72
2021/06/21 06:52:32;;;;;;;11.23;5.73;;;14.10;95.00;;;;;;5052607;28;20044;-72
2021/06/21 06:57:24;;;;;;;10.43;5.20;;;14.20;95.10;;;;;;5052440;28;20047;-71
2021/06/21 06:59:49;;;;;;;11.83;6.10;;;14.20;95.10;;;;;;5053363;28;20053;-73
2021/06/21 07:02:22;;;;;;;11.57;5.17;;;14.20;95.10;;;;;;5053396;28;20128;-71
2021/06/21 07:04:49;;;;;;;11.03;4.70;;;14.10;95.10;;;;;;5052528;28;20049;-71
2021/06/21 07:07:15;;;;;;;10.73;5.13;;;14.20;95.10;;;;;;5052379;28;20045;-71
2021/06/21 07:09:41;;;;;;;11.07;5.00;;;14.20;95.20;;;;;;5052890;28;20409;-72
2021/06/21 07:12:07;;;;;;;7.50;4.50;;;14.20;95.10;;;;;;5051745;28;20453;-71
2021/06/21 07:14:33;;;;;;;11.67;4.53;;;14.20;95.10;;;;;;5052845;28;20041;-71
2021/06/21 07:17:00;;;;;;;9.20;5.03;;;14.20;95.10;;;;;;5052511;28;20099;-71
2021/06/21 07:19:26;;;;;;;11.60;5.23;;;14.20;95.20;;;;;;5051621;28;20049;-71
2021/06/21 07:21:52;;;;;;;11.10;5.00;;;14.20;95.20;;;;;;5052709;28;20072;-71
2021/06/21 07:24:19;;;;;;;7.07;4.93;;;14.20;95.20;;;;;;5052185;28;20434;-71
2021/06/21 07:26:46;;;;;;;8.57;4.63;;;14.20;95.20;;;;;;5050971;28;20048;-72
2021/06/21 07:29:12;;;;;;;7.87;4.60;;;14.20;95.20;;;;;;5050571;28;20049;-70
2021/06/21 07:31:38;;;;;;;12.73;5.17;;;14.20;95.20;;;;;;5051117;28;20045;-71
2021/06/21 07:34:04;;;;;;;13.67;5.57;;;14.20;95.20;;;;;;5050458;28;20065;-71
2021/06/21 07:36:30;;;;;;;11.07;4.50;;;14.20;95.20;;;;;;5052143;28;20045;-72
2021/06/21 07:38:56;;;;;;;12.63;4.73;;;14.10;95.20;;;;;;5051767;28;20520;-71
2021/06/21 07:41:22;;;;;;;10.43;4.87;;;14.10;95.20;;;;;;5050079;28;20485;-71
2021/06/21 07:43:49;;;;;;;15.70;5.97;;;14.10;95.30;;;;;;5051543;28;20044;-71
2021/06/21 07:46:16;;;;;;;10.60;4.70;;;14.10;95.30;;;;;;5051664;28;20053;-71
2021/06/21 07:48:42;;;;;;;14.53;4.70;;;14.10;95.30;;;;;;5048578;28;20098;-71
2021/06/21 07:51:13;;;;;;;14.93;5.30;;;14.10;95.30;;;;;;5051660;28;20443;-72
2021/06/21 07:53:39;;;;;;;;;;;14.10;95.40;;;;;;5051599;28;20047;-73
2021/06/21 07:56:06;;;;;;;9.67;4.07;;;14.10;95.10;;;;;;5050678;28;20114;-71
2021/06/21 07:58:33;;;;;;;12.43;4.67;;;14.00;95.10;;;;;;5051501;28;20052;-72
2021/06/21 08:00:58;;;;;;;8.83;4.50;;;14.00;95.20;;;;;;5050498;28;20049;-73
2021/06/21 08:03:25;;;;;;;13.00;4.97;;;14.00;95.20;;;;;;5051290;28;20057;-73
2021/06/21 08:05:50;;;;;;;15.73;5.40;;;14.00;95.40;;;;;;5051104;28;20351;-72
2021/06/21 08:08:17;;;;;;;9.57;4.83;;;14.00;95.30;;;;;;5050216;28;20398;-72
2021/06/21 08:10:43;;;;;;;9.63;4.60;;;14.00;95.30;;;;;;5050793;28;20045;-71
2021/06/21 08:13:09;;;;;;;13.17;4.90;;;14.00;95.30;;;;;;5048386;28;20438;-71
2021/06/21 08:15:34;;;;;;;10.57;4.60;;;13.90;95.40;;;;;;5050509;28;20056;-72
2021/06/21 08:18:00;;;;;;;10.37;4.43;;;14.00;95.40;;;;;;5050774;28;20045;-72
2021/06/21 08:20:26;;;;;;;8.13;4.17;;;13.90;95.40;;;;;;5050941;28;20490;-71
2021/06/21 08:22:52;;;;;;;11.53;5.63;;;13.90;95.40;;;;;;5050667;28;20094;-72
2021/06/21 08:25:17;;;;;;;11.57;4.53;;;13.90;95.40;;;;;;5051263;28;20110;-74
2021/06/21 08:27:43;;;;;;;10.93;4.43;;;13.90;95.50;;;;;;5051571;28;20049;-72
2021/06/21 08:30:09;;;;;;;13.80;4.67;;;13.90;95.50;;;;;;5050543;28;20056;-71
2021/06/21 08:32:36;;;;;;;13.70;4.97;;;13.80;95.50;;;;;;5051956;28;20060;-73
2021/06/21 08:35:02;;;;;;;10.97;4.10;;;13.90;95.60;;;;;;5051575;28;20123;-71
2021/06/21 08:37:28;;;;;;;12.10;4.00;;;13.90;95.60;;;;;;5050965;28;20049;-72
2021/06/21 08:39:53;;;;;;;9.40;4.50;;;13.80;95.60;;;;;;5050702;28;20197;-73
2021/06/21 08:42:20;;;;;;;9.10;4.50;;;13.80;95.60;;;;;;5051377;28;20450;-72
2021/06/21 08:44:46;;;;;;;10.90;4.47;;;13.80;95.50;;;;;;5050815;28;20072;-72
2021/06/21 08:47:13;;;;;;;12.27;5.00;;;13.80;95.60;;;;;;5050460;28;20469;-73
2021/06/21 08:49:45;;;;;;;11.90;5.17;;;13.80;95.60;;;;;;5050501;28;20098;-72
2021/06/21 08:52:12;;;;;;;;;;;13.80;95.70;;;;;;5051765;28;20052;-72
2021/06/21 08:54:37;;;;;;;11.90;5.03;;;13.90;95.70;;;;;;5051092;28;19920;-72
2021/06/21 08:57:05;;;;;;;10.70;4.87;;;13.90;95.60;;;;;;5050563;28;20478;-72
2021/06/21 08:59:30;;;;;;;14.90;4.83;;;13.90;95.70;;;;;;5051359;28;20123;-71
2021/06/21 09:01:56;;;;;;;11.20;4.37;;;13.90;95.70;;;;;;5051525;28;20128;-72
2021/06/21 09:04:24;;;;;;;11.17;4.73;;;13.90;95.80;;;;;;5050399;28;20053;-72
2021/06/21 09:06:49;;;;;;;11.07;4.13;;;14.00;95.90;;;;;;5051308;28;20045;-74
2021/06/21 09:09:15;;;;;;;10.17;4.57;;;14.00;96.00;;;;;;5050679;28;20045;-73
2021/06/21 09:11:47;;;;;;;11.07;4.23;;;14.00;96.00;;;;;;5050254;28;20083;-72
2021/06/21 09:14:25;;;;;;;12.33;4.27;;;14.00;96.00;;;;;;5050174;28;20049;-71
2021/06/21 09:16:56;;;;;;;9.77;2.80;;;14.00;96.10;;;;;;5050491;28;20108;-73
2021/06/21 09:19:22;;;;;;;10.00;3.30;;;14.00;96.00;;;;;;5048833;28;20087;-72
2021/06/21 09:21:48;;;;;;;9.87;3.70;;;14.00;96.00;;;;;;5049913;28;20458;-74
2021/06/21 09:24:28;;;;;;;9.07;3.27;;;14.00;95.90;;;;;;5050218;28;20049;-73
2021/06/21 09:26:58;;;;;;;13.97;3.83;;;14.00;95.90;;;;;;5048520;28;20091;-72
2021/06/21 09:29:41;;;;;;;12.18;3.90;;;14.00;96.00;;;;;;5049787;28;20091;-73
2021/06/21 09:32:07;;;;;;;7.40;2.70;;;13.90;96.00;;;;;;5047903;28;20099;-74
2021/06/21 09:34:33;;;;;;;8.60;2.70;;;13.90;96.00;;;;;;5047785;28;20425;-75
2021/06/21 09:37:18;;;;;;;10.40;3.40;;;13.90;96.00;;;;;;5047562;28;20053;-74
2021/06/21 09:39:49;;;;;;;9.13;2.63;;;13.80;95.90;;;;;;5047978;28;20052;-74
2021/06/21 09:42:23;;;;;;;7.07;3.28;;;13.80;96.00;;;;;;5049180;28;20501;-74
2021/06/21 09:44:52;;;;;;;5.93;2.60;;;13.70;95.90;;;;;;5049299;28;20414;-74
2021/06/21 09:47:38;;;;;;;9.17;2.63;;;13.70;96.00;;;;;;5048509;28;20578;-73
2021/06/21 09:50:18;;;;;;;10.67;2.87;;;13.70;95.90;;;;;;5050339;28;20053;-74
2021/06/21 09:52:46;;;;;;;5.27;2.50;;;13.70;95.90;;;;;;5052049;28;20048;-75
2021/06/21 09:55:26;;;;;;;7.33;3.10;;;13.60;96.00;;;;;;5053051;28;20083;-74
2021/06/21 09:58:06;;;;;;;7.10;3.00;;;13.70;96.10;;;;;;5054036;28;20048;-74
2021/06/21 10:00:34;;;;;;;5.27;2.50;;;13.60;96.10;;;;;;5053571;28;20059;-74
2021/06/21 10:03:09;;;;;;;6.37;2.90;;;13.60;96.10;;;;;;5053953;28;20044;-74
2021/06/21 10:05:39;;;;;;;8.07;2.73;;;13.70;96.20;;;;;;5053986;28;20061;-74
2021/06/21 10:08:05;;;;;;;8.77;3.10;;;13.60;96.20;;;;;;5052724;28;20398;-73
2021/06/21 10:10:33;;;;;;;5.23;2.90;;;13.60;96.30;;;;;;5053901;28;20064;-74
2021/06/21 10:12:59;;;;;;;6.33;3.10;;;13.70;96.30;;;;;;5053693;28;20091;-74
2021/06/21 10:15:25;;;;;;;11.83;3.43;;;13.60;96.40;;;;;;5053202;28;20083;-74
2021/06/21 10:17:51;;;;;;;9.10;3.30;;;13.70;96.40;;;;;;5053926;28;20072;-74
2021/06/21 10:20:16;;;;;;;8.83;3.30;;;13.60;96.80;;;;;;5053486;28;20045;-73
2021/06/21 10:22:42;;;;;;;9.53;3.83;;;13.60;96.40;;;;;;5052907;28;20064;-74
2021/06/21 10:25:10;;;;;;;7.00;3.40;;;13.60;96.40;;;;;;5052972;28;20501;-74
2021/06/21 10:27:43;;;;;;;7.83;3.60;;;13.60;96.50;;;;;;5053735;28;20053;-74
2021/06/21 10:30:21;;;;;;;9.53;3.53;;;13.70;96.50;;;;;;5052617;28;20041;-75
2021/06/21 10:32:47;;;;;;;10.93;4.10;;;13.60;96.60;;;;;;5053617;28;20076;-75
2021/06/21 10:35:14;;;;;;;8.70;3.77;;;13.60;96.60;;;;;;5052344;28;20064;-75
2021/06/21 10:38:15;;;;;;;7.40;3.47;;;13.60;96.60;;;;;;5053431;28;20053;-75
2021/06/21 10:40:54;;;;;;;6.60;3.43;;;13.60;96.60;;;;;;5053540;28;20430;-73
2021/06/21 10:43:48;;;;;;;9.53;3.30;;;13.60;96.60;;;;;;5052280;28;20347;-76
2021/06/21 10:46:14;;;;;;;8.17;3.23;;;13.60;96.60;;;;;;5053135;28;20052;-74
2021/06/21 10:49:00;;;;;;;8.23;3.73;;;13.60;96.60;;;;;;5053506;28;20045;-73
2021/06/21 10:51:38;;;;;;;9.20;3.30;;;13.60;96.60;;;;;;5052343;28;20061;-72
2021/06/21 10:54:06;;;;;;;6.40;3.10;;;13.60;96.70;;;;;;5052717;28;20400;-73
2021/06/21 10:56:45;;;;;;;10.37;3.20;;;13.70;96.60;;;;;;5052285;28;20792;-73
2021/06/21 10:59:16;;;;;;;8.73;3.27;;;13.60;96.60;;;;;;5053025;28;20471;-73
2021/06/21 11:01:57;;;;;;;12.50;3.50;;;13.70;96.60;;;;;;5053165;28;20043;-73
2021/06/21 11:04:35;;;;;;;13.43;3.72;;;13.70;96.70;;;;;;5051988;28;20115;-73
2021/06/21 11:07:27;;;;;;;12.37;3.37;;;13.70;96.70;;;;;;5052688;28;20122;-73
2021/06/21 11:09:57;;;;;;;10.25;3.33;;;13.70;96.70;;;;;;5048942;28;20382;-73
2021/06/21 11:12:29;;;;;;;8.80;3.30;;;13.70;96.60;;;;;;5052161;28;20053;-76
2021/06/21 11:15:07;;;;;;;;;;;13.70;96.70;;;;;;5053259;28;20049;-74
2021/06/21 11:17:56;;;;;;;5.97;3.30;;;13.70;96.80;;;;;;5052016;28;19921;-74
2021/06/21 11:20:44;;;;;;;10.07;3.67;;;13.70;96.60;;;;;;5052060;28;20048;-74
2021/06/21 11:23:40;;;;;;;12.03;4.27;;;13.60;96.60;;;;;;5051974;28;20044;-75
2021/06/21 11:26:05;;;;;;;8.13;4.60;;;13.60;96.80;;;;;;5051428;28;20053;-74
2021/06/21 11:28:38;;;;;;;9.83;4.03;;;13.60;96.70;;;;;;5052409;28;20090;-75
2021/06/21 11:31:23;;;;;;;10.63;3.87;;;13.70;96.90;;;;;;5052001;28;20124;-74
2021/06/21 11:34:01;;;;;;;13.07;3.50;;;13.60;96.80;;;;;;5052168;28;20489;-73
2021/06/21 11:36:46;;;;;;;11.20;3.80;;;13.60;96.70;;;;;;5052580;28;20049;-74
2021/06/21 11:39:28;;;;;;;9.80;3.47;;;13.60;96.80;;;;;;5050555;28;20065;-75
2021/06/21 11:42:07;;;;;;;8.30;3.57;;;13.60;96.90;;;;;;5052169;28;20107;-74
2021/06/21 11:44:39;;;;;;;8.20;3.47;;;13.60;96.80;;;;;;5052160;28;20053;-73
2021/06/21 11:47:34;;;;;;;6.70;3.27;;;13.60;96.80;;;;;;5050570;28;20580;-74
2021/06/21 11:50:15;;;;;;;6.90;3.50;;;13.60;96.80;;;;;;5051695;28;20498;-74
2021/06/21 11:52:42;;;;;;;10.98;3.65;;;13.70;96.90;;;;;;5050924;28;20478;-74
2021/06/21 11:55:16;;;;;;;5.13;2.60;;;13.60;96.80;;;;;;5051373;28;20076;-74
2021/06/21 11:57:43;;;;;;;7.40;2.93;;;13.60;96.80;;;;;;5051667;28;20067;-74
2021/06/21 12:00:09;;;;;;;7.00;3.20;;;13.60;96.70;;;;;;5050507;28;20044;-74
2021/06/21 12:02:35;;;;;;;9.00;3.80;;;13.60;96.80;;;;;;5051469;28;20053;-74
2021/06/21 12:05:09;;;;;;;5.50;3.17;;;13.60;96.80;;;;;;5050796;28;20485;-73
2021/06/21 12:07:43;;;;;;;8.00;3.93;;;13.70;96.90;;;;;;5050643;28;20494;-74
2021/06/21 12:10:13;;;;;;;8.03;3.10;;;13.60;96.90;;;;;;5051112;28;20045;-74
2021/06/21 12:12:41;;;;;;;8.50;3.23;;;13.60;97.00;;;;;;5051644;28;20144;-74
2021/06/21 12:15:10;;;;;;;9.80;2.77;;;13.70;97.00;;;;;;5049887;28;20057;-74
2021/06/21 12:17:36;;;;;;;7.37;2.50;;;13.70;97.00;;;;;;5051280;28;20059;-73
2021/06/21 12:20:18;;;;;;;6.50;2.87;;;13.70;96.90;;;;;;5051070;28;20076;-73
2021/06/21 12:23:01;;;;;;;6.37;2.60;;;13.70;96.80;;;;;;5051102;28;20059;-74
2021/06/21 12:25:32;;;;;;;10.20;3.47;;;13.70;96.80;;;;;;5051270;28;20052;-73
2021/06/21 12:28:21;;;;;;;5.50;3.10;;;13.70;96.90;;;;;;5050315;28;20122;-74
2021/06/21 12:30:56;;;;;;;4.10;2.70;;;13.70;96.90;;;;;;5051310;28;20049;-73
2021/06/21 12:33:39;;;;;;;8.13;2.70;;;13.70;96.90;;;;;;5051282;28;20049;-73
2021/06/21 12:36:06;;;;;;;10.90;3.17;;;13.70;96.80;;;;;;5050052;28;20048;-73
2021/06/21 12:38:33;;;;;;;9.63;3.50;;;13.70;96.80;;;;;;5050812;28;20110;-74
2021/06/21 12:40:59;;;;;;;6.77;3.17;;;13.70;96.90;;;;;;5051071;28;20053;-73
2021/06/21 12:43:25;;;;;;;5.07;2.40;;;13.70;96.90;;;;;;5050503;28;20040;-74
2021/06/21 12:45:50;;;;;;;7.73;3.03;;;13.70;96.90;;;;;;5050909;28;20187;-73
2021/06/21 12:48:16;;;;;;;8.43;3.17;;;13.70;96.90;;;;;;5032608;28;20045;-74
2021/06/21 12:50:42;;;;;;;9.20;3.07;;;13.70;97.00;;;;;;5049950;28;20417;-73
2021/06/21 12:53:09;;;;;;;11.07;3.67;;;13.80;96.90;;;;;;5050886;28;20072;-74
2021/06/21 12:55:35;;;;;;;7.90;3.73;;;13.80;96.90;;;;;;5050749;28;20049;-74